sensor_id;sensor_type;location;lat;lon;timestamp;temperature;humidity
19561;DHT22;9927;47.792;10.616;2024-02-21T04:00:41;1.80;99.90
19561;DHT22;9927;47.792;10.616;2024-02-21T04:03:08;1.90;99.90
19561;DHT22;9927;47.792;10.616;2024-02-21T04:05:35;1.90;99.90
19561;DHT22;9927;47.792;10.616;2024-02-21T04:08:06;2.00;99.90
19561;DHT22;9927;47.792;10.616;2024-02-21T04:10:33;1.90;99.90
19561;DHT22;9927;47.792;10.616;2024-02-21T04:13:01;1.90;99.90
19561;DHT22;9927;47.792;10.616;2024-02-21T04:15:28;1.80;99.90
19561;DHT22;9927;47.792;10.616;2024-02-21T04:17:55;1.80;99.90
19561;DHT22;9927;47.792;10.616;2024-02-21T04:20:22;1.90;99.90
19561;DHT22;9927;47.792;10.616;2024-02-21T04:22:50;1.90;99.90
19561;DHT22;9927;47.792;10.616;2024-02-21T04:25:17;1.90;99.90
19561;DHT22;9927;47.792;10.616;2024-02-21T04:27:46;1.90;99.90
19561;DHT22;9927;47.792;10.616;2024-02-21T04:30:13;2.00;99.90
19561;DHT22;9927;47.792;10.616;2024-02-21T04:32:41;2.00;99.90
19561;DHT22;9927;47.792;10.616;2024-02-21T04:35:08;1.90;99.90
19561;DHT22;9927;47.792;10.616;2024-02-21T04:37:36;2.00;99.90
19561;DHT22;9927;47.792;10.616;2024-02-21T04:40:03;2.00;99.90
19561;DHT22;9927;47.792;10.616;2024-02-21T04:42:31;2.00;99.90
19561;DHT22;9927;47.792;10.616;2024-02-21T04:44:58;1.90;99.90
19561;DHT22;9927;47.792;10.616;2024-02-21T04:47:26;1.80;99.90
19561;DHT22;9927;47.792;10.616;2024-02-21T04:49:53;1.80;99.90
19561;DHT22;9927;47.792;10.616;2024-02-21T04:52:21;1.80;99.90
19561;DHT22;9927;47.792;10.616;2024-02-21T04:54:48;2.00;99.90
19561;DHT22;9927;47.792;10.616;2024-02-21T04:57:16;1.90;99.90
19561;DHT22;9927;47.792;10.616;2024-02-21T04:59:46;1.90;99.90
19561;DHT22;9927;47.792;10.616;2024-02-21T05:02:14;1.90;99.90
19561;DHT22;9927;47.792;10.616;2024-02-21T05:04:42;1.90;99.90
19561;DHT22;9927;47.792;10.616;2024-02-21T05:07:10;1.80;99.90
19561;DHT22;9927;47.792;10.616;2024-02-21T05:09:39;1.80;99.90
19561;DHT22;9927;47.792;10.616;2024-02-21T05:12:06;1.80;99.90
19561;DHT22;9927;47.792;10.616;2024-02-21T05:14:34;1.80;99.90
19561;DHT22;9927;47.792;10.616;2024-02-21T05:17:01;1.70;99.90
19561;DHT22;9927;47.792;10.616;2024-02-21T05:19:28;1.70;99.90
19561;DHT22;9927;47.792;10.616;2024-02-21T05:21:55;1.70;99.90
19561;DHT22;9927;47.792;10.616;2024-02-21T05:24:23;1.70;99.90
19561;DHT22;9927;47.792;10.616;2024-02-21T05:26:51;1.70;99.90
19561;DHT22;9927;47.792;10.616;2024-02-21T05:29:18;1.70;99.90
19561;DHT22;9927;47.792;10.616;2024-02-21T05:34:19;1.60;99.90
19561;DHT22;9927;47.792;10.616;2024-02-21T05:36:47;1.60;99.90
19561;DHT22;9927;47.792;10.616;2024-02-21T05:39:17;1.50;99.90
19561;DHT22;9927;47.792;10.616;2024-02-21T05:41:44;1.60;99.90
19561;DHT22;9927;47.792;10.616;2024-02-21T05:44:12;1.60;99.90
19561;DHT22;9927;47.792;10.616;2024-02-21T05:46:39;1.60;99.90
19561;DHT22;9927;47.792;10.616;2024-02-21T05:49:06;1.60;99.90
19561;DHT22;9927;47.792;10.616;2024-02-21T05:51:34;1.60;99.90
19561;DHT22;9927;47.792;10.616;2024-02-21T05:54:02;1.70;99.90
19561;DHT22;9927;47.792;10.616;2024-02-21T05:56:29;1.70;99.90
19561;DHT22;9927;47.792;10.616;2024-02-21T05:58:56;1.70;99.90
19561;DHT22;9927;47.792;10.616;2024-02-21T06:01:24;1.60;99.90
19561;DHT22;9927;47.792;10.616;2024-02-21T06:03:52;1.60;99.90
19561;DHT22;9927;47.792;10.616;2024-02-21T06:06:19;1.70;99.90
19561;DHT22;9927;47.792;10.616;2024-02-21T06:08:49;1.70;99.90
19561;DHT22;9927;47.792;10.616;2024-02-21T06:11:16;1.70;99.90
19561;DHT22;9927;47.792;10.616;2024-02-21T06:13:43;1.80;99.90
19561;DHT22;9927;47.792;10.616;2024-02-21T06:16:11;1.80;99.90
19561;DHT22;9927;47.792;10.616;2024-02-21T06:18:38;1.90;99.90
19561;DHT22;9927;47.792;10.616;2024-02-21T06:21:06;2.00;99.90
19561;DHT22;9927;47.792;10.616;2024-02-21T06:23:33;2.10;99.90
19561;DHT22;9927;47.792;10.616;2024-02-21T06:26:00;2.20;99.90
19561;DHT22;9927;47.792;10.616;2024-02-21T06:28:27;2.30;99.90
19561;DHT22;9927;47.792;10.616;2024-02-21T06:30:55;2.20;99.90
19561;DHT22;9927;47.792;10.616;2024-02-21T06:33:22;2.10;99.90
19561;DHT22;9927;47.792;10.616;2024-02-21T06:35:51;2.10;99.90
19561;DHT22;9927;47.792;10.616;2024-02-21T06:38:20;2.10;99.90
19561;DHT22;9927;47.792;10.616;2024-02-21T06:40:47;2.10;99.90
19561;DHT22;9927;47.792;10.616;2024-02-21T06:43:18;2.20;99.90
19561;DHT22;9927;47.792;10.616;2024-02-21T06:45:46;2.20;99.90
19561;DHT22;9927;47.792;10.616;2024-02-21T06:48:20;2.40;99.90
19561;DHT22;9927;47.792;10.616;2024-02-21T06:50:48;2.50;99.90
19561;DHT22;9927;47.792;10.616;2024-02-21T06:53:15;2.50;99.90
19561;DHT22;9927;47.792;10.616;2024-02-21T06:55:42;2.60;99.90
19561;DHT22;9927;47.792;10.616;2024-02-21T06:58:10;2.60;99.90
19561;DHT22;9927;47.792;10.616;2024-02-21T07:00:39;2.80;99.90
19561;DHT22;9927;47.792;10.616;2024-02-21T07:03:07;2.80;99.90
19561;DHT22;9927;47.792;10.616;2024-02-21T07:05:36;2.90;99.90
19561;DHT22;9927;47.792;10.616;2024-02-21T07:08:03;3.10;99.90
19561;DHT22;9927;47.792;10.616;2024-02-21T07:10:31;3.10;99.90
19561;DHT22;9927;47.792;10.616;2024-02-21T07:12:58;3.10;99.90
19561;DHT22;9927;47.792;10.616;2024-02-21T07:15:25;3.20;99.90
19561;DHT22;9927;47.792;10.616;2024-02-21T07:17:54;3.40;99.90
19561;DHT22;9927;47.792;10.616;2024-02-21T07:20:21;3.50;99.90
19561;DHT22;9927;47.792;10.616;2024-02-21T07:22:48;3.50;99.90
19561;DHT22;9927;47.792;10.616;2024-02-21T07:25:16;3.50;99.90
19561;DHT22;9927;47.792;10.616;2024-02-21T07:27:44;3.40;99.90
19561;DHT22;9927;47.792;10.616;2024-02-21T07:30:12;3.30;99.90
19561;DHT22;9927;47.792;10.616;2024-02-21T07:32:43;3.40;99.90
19561;DHT22;9927;47.792;10.616;2024-02-21T07:35:11;3.40;99.90
19561;DHT22;9927;47.792;10.616;2024-02-21T07:37:39;3.40;99.90
19561;DHT22;9927;47.792;10.616;2024-02-21T07:40:15;3.50;99.90
19561;DHT22;9927;47.792;10.616;2024-02-21T07:42:43;3.50;99.90
19561;DHT22;9927;47.792;10.616;2024-02-21T07:45:17;3.50;99.90
19561;DHT22;9927;47.792;10.616;2024-02-21T07:47:46;3.50;99.90
19561;DHT22;9927;47.792;10.616;2024-02-21T07:50:13;3.60;99.90
19561;DHT22;9927;47.792;10.616;2024-02-21T07:52:40;3.60;99.90
19561;DHT22;9927;47.792;10.616;2024-02-21T07:55:08;3.70;99.90
19561;DHT22;9927;47.792;10.616;2024-02-21T07:57:37;3.90;99.90
19561;DHT22;9927;47.792;10.616;2024-02-21T08:00:05;3.90;99.90
19561;DHT22;9927;47.792;10.616;2024-02-21T08:02:32;4.00;99.90
19561;DHT22;9927;47.792;10.616;2024-02-21T08:05:00;4.10;99.90
19561;DHT22;9927;47.792;10.616;2024-02-21T08:07:27;4.20;99.90
19561;DHT22;9927;47.792;10.616;2024-02-21T08:09:56;4.30;99.90
19561;DHT22;9927;47.792;10.616;2024-02-21T08:12:24;4.30;99.90
19561;DHT22;9927;47.792;10.616;2024-02-21T08:14:51;4.40;99.90
19561;DHT22;9927;47.792;10.616;2024-02-21T08:17:18;4.50;99.90
19561;DHT22;9927;47.792;10.616;2024-02-21T08:19:45;4.50;99.90
19561;DHT22;9927;47.792;10.616;2024-02-21T08:22:13;4.60;99.90
19561;DHT22;9927;47.792;10.616;2024-02-21T08:24:40;4.70;99.90
19561;DHT22;9927;47.792;10.616;2024-02-21T08:27:07;4.80;99.90
19561;DHT22;9927;47.792;10.616;2024-02-21T08:29:34;4.90;99.90
19561;DHT22;9927;47.792;10.616;2024-02-21T08:32:02;5.00;99.90
19561;DHT22;9927;47.792;10.616;2024-02-21T08:34:29;5.10;99.90
19561;DHT22;9927;47.792;10.616;2024-02-21T08:37:00;5.30;99.90
19561;DHT22;9927;47.792;10.616;2024-02-21T08:39:27;5.50;99.90
19561;DHT22;9927;47.792;10.616;2024-02-21T08:41:56;5.70;99.90
19561;DHT22;9927;47.792;10.616;2024-02-21T08:44:25;6.00;99.90
19561;DHT22;9927;47.792;10.616;2024-02-21T08:46:55;6.30;99.90
19561;DHT22;9927;47.792;10.616;2024-02-21T08:49:24;6.60;99.90
19561;DHT22;9927;47.792;10.616;2024-02-21T08:52:01;6.80;99.90
19561;DHT22;9927;47.792;10.616;2024-02-21T08:54:29;7.00;99.90
19561;DHT22;9927;47.792;10.616;2024-02-21T08:56:56;7.30;99.90
19561;DHT22;9927;47.792;10.616;2024-02-21T08:59:24;7.20;99.90
19561;DHT22;9927;47.792;10.616;2024-02-21T09:01:53;7.20;99.90
19561;DHT22;9927;47.792;10.616;2024-02-21T09:04:21;7.30;99.90
19561;DHT22;9927;47.792;10.616;2024-02-21T09:06:48;7.30;99.90
19561;DHT22;9927;47.792;10.616;2024-02-21T09:09:16;7.30;99.90
19561;DHT22;9927;47.792;10.616;2024-02-21T09:11:44;7.40;99.90
19561;DHT22;9927;47.792;10.616;2024-02-21T09:14:11;7.60;99.90
19561;DHT22;9927;47.792;10.616;2024-02-21T09:16:39;7.60;99.90
19561;DHT22;9927;47.792;10.616;2024-02-21T09:19:06;7.70;99.90
19561;DHT22;9927;47.792;10.616;2024-02-21T09:21:38;7.80;99.90
19561;DHT22;9927;47.792;10.616;2024-02-21T09:24:06;7.90;99.90
19561;DHT22;9927;47.792;10.616;2024-02-21T09:26:33;8.00;99.90
19561;DHT22;9927;47.792;10.616;2024-02-21T09:29:00;7.90;99.90
19561;DHT22;9927;47.792;10.616;2024-02-21T09:31:28;8.00;99.90
19561;DHT22;9927;47.792;10.616;2024-02-21T09:33:55;8.10;99.90
19561;DHT22;9927;47.792;10.616;2024-02-21T09:36:23;8.20;99.90
19561;DHT22;9927;47.792;10.616;2024-02-21T09:38:50;8.30;99.90
19561;DHT22;9927;47.792;10.616;2024-02-21T09:41:18;8.40;99.90
19561;DHT22;9927;47.792;10.616;2024-02-21T09:43:52;8.50;99.90
19561;DHT22;9927;47.792;10.616;2024-02-21T09:47:54;8.60;99.90
19561;DHT22;9927;47.792;10.616;2024-02-21T09:49:45;8.70;99.90
19561;DHT22;9927;47.792;10.616;2024-02-21T09:52:15;8.90;99.90
19561;DHT22;9927;47.792;10.616;2024-02-21T09:54:42;9.10;99.90
19561;DHT22;9927;47.792;10.616;2024-02-21T09:57:13;9.20;99.90
19561;DHT22;9927;47.792;10.616;2024-02-21T09:59:40;9.30;99.90
19561;DHT22;9927;47.792;10.616;2024-02-21T10:02:09;9.50;99.90
19561;DHT22;9927;47.792;10.616;2024-02-21T10:04:40;9.70;99.90
19561;DHT22;9927;47.792;10.616;2024-02-21T10:07:08;9.80;99.90
19561;DHT22;9927;47.792;10.616;2024-02-21T10:09:36;9.90;99.90
19561;DHT22;9927;47.792;10.616;2024-02-21T10:12:11;10.00;99.90
19561;DHT22;9927;47.792;10.616;2024-02-21T10:14:40;10.10;99.90
19561;DHT22;9927;47.792;10.616;2024-02-21T10:17:08;10.20;99.90
19561;DHT22;9927;47.792;10.616;2024-02-21T10:19:38;10.40;99.90
19561;DHT22;9927;47.792;10.616;2024-02-21T10:22:08;10.50;99.90
19561;DHT22;9927;47.792;10.616;2024-02-21T10:24:37;10.50;98.00
19561;DHT22;9927;47.792;10.616;2024-02-21T10:27:11;10.60;98.60
19561;DHT22;9927;47.792;10.616;2024-02-21T10:29:40;10.70;96.60
19561;DHT22;9927;47.792;10.616;2024-02-21T10:32:13;10.80;97.60
19561;DHT22;9927;47.792;10.616;2024-02-21T10:34:42;10.80;95.00
19561;DHT22;9927;47.792;10.616;2024-02-21T10:37:11;10.90;95.20
19561;DHT22;9927;47.792;10.616;2024-02-21T10:39:39;10.90;94.60
19561;DHT22;9927;47.792;10.616;2024-02-21T10:42:10;11.00;94.90
19561;DHT22;9927;47.792;10.616;2024-02-21T10:44:38;11.20;97.00
19561;DHT22;9927;47.792;10.616;2024-02-21T10:47:11;11.10;96.10
19561;DHT22;9927;47.792;10.616;2024-02-21T10:49:41;11.10;95.60
19561;DHT22;9927;47.792;10.616;2024-02-21T10:55:11;11.10;92.60
19561;DHT22;9927;47.792;10.616;2024-02-21T10:57:42;11.10;94.00
19561;DHT22;9927;47.792;10.616;2024-02-21T11:00:11;11.20;94.20
19561;DHT22;9927;47.792;10.616;2024-02-21T11:02:40;11.40;93.70
19561;DHT22;9927;47.792;10.616;2024-02-21T11:05:08;11.60;93.50
19561;DHT22;9927;47.792;10.616;2024-02-21T11:07:37;11.60;94.90
19561;DHT22;9927;47.792;10.616;2024-02-21T11:10:05;11.60;94.20
19561;DHT22;9927;47.792;10.616;2024-02-21T11:12:34;11.60;94.60
19561;DHT22;9927;47.792;10.616;2024-02-21T11:15:08;11.80;94.00
19561;DHT22;9927;47.792;10.616;2024-02-21T11:17:35;11.70;92.70
19561;DHT22;9927;47.792;10.616;2024-02-21T11:20:16;11.80;93.60
19561;DHT22;9927;47.792;10.616;2024-02-21T11:22:43;11.80;94.20
19561;DHT22;9927;47.792;10.616;2024-02-21T11:25:11;11.90;94.90
19561;DHT22;9927;47.792;10.616;2024-02-21T11:27:39;12.00;92.90
19561;DHT22;9927;47.792;10.616;2024-02-21T11:30:12;12.00;94.10
19561;DHT22;9927;47.792;10.616;2024-02-21T11:32:41;11.90;93.90
19561;DHT22;9927;47.792;10.616;2024-02-21T11:35:19;12.00;94.60
19561;DHT22;9927;47.792;10.616;2024-02-21T11:37:47;12.00;95.50
19561;DHT22;9927;47.792;10.616;2024-02-21T11:40:14;12.10;93.70
19561;DHT22;9927;47.792;10.616;2024-02-21T11:42:41;12.10;95.10
19561;DHT22;9927;47.792;10.616;2024-02-21T11:45:09;12.10;94.40
19561;DHT22;9927;47.792;10.616;2024-02-21T11:47:36;12.20;92.50
19561;DHT22;9927;47.792;10.616;2024-02-21T11:50:10;12.10;93.90
19561;DHT22;9927;47.792;10.616;2024-02-21T11:52:39;12.30;94.80
19561;DHT22;9927;47.792;10.616;2024-02-21T11:55:06;12.20;93.40
19561;DHT22;9927;47.792;10.616;2024-02-21T11:57:37;12.30;94.20
19561;DHT22;9927;47.792;10.616;2024-02-21T12:00:18;12.30;91.90
19561;DHT22;9927;47.792;10.616;2024-02-21T12:02:47;12.20;92.30
19561;DHT22;9927;47.792;10.616;2024-02-21T12:05:15;12.30;93.80
19561;DHT22;9927;47.792;10.616;2024-02-21T12:07:43;12.20;93.50
19561;DHT22;9927;47.792;10.616;2024-02-21T12:10:11;12.30;94.90
19561;DHT22;9927;47.792;10.616;2024-02-21T12:12:39;12.30;94.20
19561;DHT22;9927;47.792;10.616;2024-02-21T12:15:07;12.30;92.20
19561;DHT22;9927;47.792;10.616;2024-02-21T12:17:36;12.40;93.20
19561;DHT22;9927;47.792;10.616;2024-02-21T12:20:04;12.40;94.50
19561;DHT22;9927;47.792;10.616;2024-02-21T12:22:44;12.50;95.40
19561;DHT22;9927;47.792;10.616;2024-02-21T12:25:38;12.60;94.40
19561;DHT22;9927;47.792;10.616;2024-02-21T12:28:06;12.70;94.70
19561;DHT22;9927;47.792;10.616;2024-02-21T12:30:34;12.70;93.10
19561;DHT22;9927;47.792;10.616;2024-02-21T12:33:02;12.70;93.90
19561;DHT22;9927;47.792;10.616;2024-02-21T12:35:29;12.80;94.60
19561;DHT22;9927;47.792;10.616;2024-02-21T12:37:59;13.10;94.00
19561;DHT22;9927;47.792;10.616;2024-02-21T12:40:27;13.20;95.50
19561;DHT22;9927;47.792;10.616;2024-02-21T12:43:00;13.20;93.70
19561;DHT22;9927;47.792;10.616;2024-02-21T12:45:29;13.40;91.90
19561;DHT22;9927;47.792;10.616;2024-02-21T12:47:57;13.30;93.60
19561;DHT22;9927;47.792;10.616;2024-02-21T12:50:25;13.40;92.30
19561;DHT22;9927;47.792;10.616;2024-02-21T12:52:52;13.30;92.70
19561;DHT22;9927;47.792;10.616;2024-02-21T12:55:20;13.50;92.50
19561;DHT22;9927;47.792;10.616;2024-02-21T12:57:47;13.60;93.80
19561;DHT22;9927;47.792;10.616;2024-02-21T13:00:15;13.60;91.20
19561;DHT22;9927;47.792;10.616;2024-02-21T13:02:42;13.60;91.50
19561;DHT22;9927;47.792;10.616;2024-02-21T13:05:10;13.70;92.40
19561;DHT22;9927;47.792;10.616;2024-02-21T13:07:37;13.60;94.30
19561;DHT22;9927;47.792;10.616;2024-02-21T13:10:05;13.60;94.40
19561;DHT22;9927;47.792;10.616;2024-02-21T13:12:32;13.60;92.60
19561;DHT22;9927;47.792;10.616;2024-02-21T13:15:00;13.60;92.10
19561;DHT22;9927;47.792;10.616;2024-02-21T13:17:27;13.60;91.50
19561;DHT22;9927;47.792;10.616;2024-02-21T13:19:57;13.70;92.00
19561;DHT22;9927;47.792;10.616;2024-02-21T13:22:25;13.70;91.40
19561;DHT22;9927;47.792;10.616;2024-02-21T13:24:54;13.50;88.60
19561;DHT22;9927;47.792;10.616;2024-02-21T13:27:24;13.50;90.60
19561;DHT22;9927;47.792;10.616;2024-02-21T13:29:51;13.60;90.10
19561;DHT22;9927;47.792;10.616;2024-02-21T13:32:20;13.50;90.30
19561;DHT22;9927;47.792;10.616;2024-02-21T13:34:47;13.50;90.00
19561;DHT22;9927;47.792;10.616;2024-02-21T13:37:15;13.50;90.70
19561;DHT22;9927;47.792;10.616;2024-02-21T13:39:42;13.60;88.60
19561;DHT22;9927;47.792;10.616;2024-02-21T13:42:10;13.60;91.30
19561;DHT22;9927;47.792;10.616;2024-02-21T13:44:37;13.70;91.10
19561;DHT22;9927;47.792;10.616;2024-02-21T13:47:05;13.80;89.60
19561;DHT22;9927;47.792;10.616;2024-02-21T13:49:35;13.70;87.10
19561;DHT22;9927;47.792;10.616;2024-02-21T13:52:03;13.70;89.50
19561;DHT22;9927;47.792;10.616;2024-02-21T13:54:30;13.70;91.00
19561;DHT22;9927;47.792;10.616;2024-02-21T13:56:57;13.70;90.70
19561;DHT22;9927;47.792;10.616;2024-02-21T13:59:24;13.70;91.00
19561;DHT22;9927;47.792;10.616;2024-02-21T14:01:53;13.70;91.30
19561;DHT22;9927;47.792;10.616;2024-02-21T14:04:21;13.60;90.60
19561;DHT22;9927;47.792;10.616;2024-02-21T14:06:48;13.60;90.50
19561;DHT22;9927;47.792;10.616;2024-02-21T14:09:16;13.60;90.20
19561;DHT22;9927;47.792;10.616;2024-02-21T14:11:43;13.60;90.30
19561;DHT22;9927;47.792;10.616;2024-02-21T14:14:12;13.60;89.90
19561;DHT22;9927;47.792;10.616;2024-02-21T14:16:42;13.60;91.10
19561;DHT22;9927;47.792;10.616;2024-02-21T14:19:09;13.70;90.70
19561;DHT22;9927;47.792;10.616;2024-02-21T14:21:39;13.50;90.90
19561;DHT22;9927;47.792;10.616;2024-02-21T14:24:06;13.50;91.80
19561;DHT22;9927;47.792;10.616;2024-02-21T14:26:34;13.60;92.50
19561;DHT22;9927;47.792;10.616;2024-02-21T14:29:03;13.60;91.90
19561;DHT22;9927;47.792;10.616;2024-02-21T14:31:33;13.70;92.40
19561;DHT22;9927;47.792;10.616;2024-02-21T14:34:00;13.80;92.30
19561;DHT22;9927;47.792;10.616;2024-02-21T14:36:29;13.70;91.60
19561;DHT22;9927;47.792;10.616;2024-02-21T14:38:57;13.60;92.10
19561;DHT22;9927;47.792;10.616;2024-02-21T14:41:24;13.50;91.90
19561;DHT22;9927;47.792;10.616;2024-02-21T14:43:51;13.30;91.80
19561;DHT22;9927;47.792;10.616;2024-02-21T14:46:19;13.30;93.10
19561;DHT22;9927;47.792;10.616;2024-02-21T14:48:47;13.30;92.60
19561;DHT22;9927;47.792;10.616;2024-02-21T14:51:14;13.30;93.10
19561;DHT22;9927;47.792;10.616;2024-02-21T14:53:41;13.20;93.00
19561;DHT22;9927;47.792;10.616;2024-02-21T14:56:15;13.10;93.10
19561;DHT22;9927;47.792;10.616;2024-02-21T14:58:43;13.10;92.50
19561;DHT22;9927;47.792;10.616;2024-02-21T15:01:10;13.20;92.70
19561;DHT22;9927;47.792;10.616;2024-02-21T15:03:40;12.90;92.30
19561;DHT22;9927;47.792;10.616;2024-02-21T15:06:07;12.90;92.90
19561;DHT22;9927;47.792;10.616;2024-02-21T15:08:35;12.80;92.40
19561;DHT22;9927;47.792;10.616;2024-02-21T15:11:03;12.80;93.70
19561;DHT22;9927;47.792;10.616;2024-02-21T15:13:30;12.70;94.50
19561;DHT22;9927;47.792;10.616;2024-02-21T15:15:58;12.80;94.70
19561;DHT22;9927;47.792;10.616;2024-02-21T15:18:25;12.70;94.80
19561;DHT22;9927;47.792;10.616;2024-02-21T15:20:52;12.70;94.80
19561;DHT22;9927;47.792;10.616;2024-02-21T15:23:20;12.70;95.10
19561;DHT22;9927;47.792;10.616;2024-02-21T15:25:47;12.70;94.60
19561;DHT22;9927;47.792;10.616;2024-02-21T15:28:14;12.70;94.70
19561;DHT22;9927;47.792;10.616;2024-02-21T15:30:42;12.70;95.10
19561;DHT22;9927;47.792;10.616;2024-02-21T15:33:09;12.70;95.00
19561;DHT22;9927;47.792;10.616;2024-02-21T15:35:37;12.70;94.80
19561;DHT22;9927;47.792;10.616;2024-02-21T15:38:04;12.60;94.60
19561;DHT22;9927;47.792;10.616;2024-02-21T15:40:32;12.50;95.20
19561;DHT22;9927;47.792;10.616;2024-02-21T15:43:03;12.50;95.30
19561;DHT22;9927;47.792;10.616;2024-02-21T15:45:30;12.50;94.70
19561;DHT22;9927;47.792;10.616;2024-02-21T15:47:58;12.40;96.00
19561;DHT22;9927;47.792;10.616;2024-02-21T15:50:25;12.40;96.40
19561;DHT22;9927;47.792;10.616;2024-02-21T15:52:55;12.40;96.40
19561;DHT22;9927;47.792;10.616;2024-02-21T15:55:22;12.40;96.70
19561;DHT22;9927;47.792;10.616;2024-02-21T15:57:50;12.50;96.80
19561;DHT22;9927;47.792;10.616;2024-02-21T16:00:17;12.40;96.30
19561;DHT22;9927;47.792;10.616;2024-02-21T16:02:44;12.30;96.50
19561;DHT22;9927;47.792;10.616;2024-02-21T16:05:12;12.30;96.60
19561;DHT22;9927;47.792;10.616;2024-02-21T16:07:40;12.10;97.00
19561;DHT22;9927;47.792;10.616;2024-02-21T16:10:07;12.10;97.20
19561;DHT22;9927;47.792;10.616;2024-02-21T16:12:35;12.00;97.50
19561;DHT22;9927;47.792;10.616;2024-02-21T16:15:02;12.00;97.90
19561;DHT22;9927;47.792;10.616;2024-02-21T16:17:31;11.90;97.80
19561;DHT22;9927;47.792;10.616;2024-02-21T16:19:59;11.90;98.50
19561;DHT22;9927;47.792;10.616;2024-02-21T16:22:28;11.90;98.80
19561;DHT22;9927;47.792;10.616;2024-02-21T16:24:56;11.90;99.20
19561;DHT22;9927;47.792;10.616;2024-02-21T16:27:23;11.80;99.10
19561;DHT22;9927;47.792;10.616;2024-02-21T16:29:51;11.80;99.20
19561;DHT22;9927;47.792;10.616;2024-02-21T16:32:19;11.80;99.20
19561;DHT22;9927;47.792;10.616;2024-02-21T16:34:46;11.70;99.30
19561;DHT22;9927;47.792;10.616;2024-02-21T16:37:13;11.70;99.70
19561;DHT22;9927;47.792;10.616;2024-02-21T16:39:41;11.60;98.70
19561;DHT22;9927;47.792;10.616;2024-02-21T16:42:09;11.50;98.90
19561;DHT22;9927;47.792;10.616;2024-02-21T16:44:37;11.40;99.10
19561;DHT22;9927;47.792;10.616;2024-02-21T16:47:05;11.30;98.70
19561;DHT22;9927;47.792;10.616;2024-02-21T16:49:32;11.20;99.10
19561;DHT22;9927;47.792;10.616;2024-02-21T16:52:03;11.10;98.60
19561;DHT22;9927;47.792;10.616;2024-02-21T16:54:31;11.00;98.70
19561;DHT22;9927;47.792;10.616;2024-02-21T16:56:58;11.00;98.60
19561;DHT22;9927;47.792;10.616;2024-02-21T16:59:26;10.90;98.70
19561;DHT22;9927;47.792;10.616;2024-02-21T17:01:53;10.80;97.90
19561;DHT22;9927;47.792;10.616;2024-02-21T17:04:21;10.80;97.90
19561;DHT22;9927;47.792;10.616;2024-02-21T17:06:49;10.80;98.20
19561;DHT22;9927;47.792;10.616;2024-02-21T17:09:16;10.70;98.50
19561;DHT22;9927;47.792;10.616;2024-02-21T17:11:45;10.60;98.30
19561;DHT22;9927;47.792;10.616;2024-02-21T17:14:13;10.50;98.70
19561;DHT22;9927;47.792;10.616;2024-02-21T17:16:40;10.40;98.70
19561;DHT22;9927;47.792;10.616;2024-02-21T17:19:07;10.30;98.60
19561;DHT22;9927;47.792;10.616;2024-02-21T17:21:35;10.30;98.40
19561;DHT22;9927;47.792;10.616;2024-02-21T17:24:02;10.30;98.50
19561;DHT22;9927;47.792;10.616;2024-02-21T17:26:30;10.30;98.50
19561;DHT22;9927;47.792;10.616;2024-02-21T17:28:57;10.20;98.30
19561;DHT22;9927;47.792;10.616;2024-02-21T17:31:24;10.10;98.70
19561;DHT22;9927;47.792;10.616;2024-02-21T17:33:51;10.10;98.30
19561;DHT22;9927;47.792;10.616;2024-02-21T17:36:20;10.10;98.40
19561;DHT22;9927;47.792;10.616;2024-02-21T17:38:47;10.00;98.10
19561;DHT22;9927;47.792;10.616;2024-02-21T17:41:18;10.00;98.40
19561;DHT22;9927;47.792;10.616;2024-02-21T17:43:45;10.00;97.80
19561;DHT22;9927;47.792;10.616;2024-02-21T17:46:13;10.00;98.00
19561;DHT22;9927;47.792;10.616;2024-02-21T17:48:40;9.90;98.40
19561;DHT22;9927;47.792;10.616;2024-02-21T17:51:08;9.90;98.90
19561;DHT22;9927;47.792;10.616;2024-02-21T17:53:35;9.90;99.10
19561;DHT22;9927;47.792;10.616;2024-02-21T17:56:03;9.90;98.90
19561;DHT22;9927;47.792;10.616;2024-02-21T17:58:31;9.90;99.00
19561;DHT22;9927;47.792;10.616;2024-02-21T18:00:58;9.80;99.00
19561;DHT22;9927;47.792;10.616;2024-02-21T18:03:28;9.80;98.80
19561;DHT22;9927;47.792;10.616;2024-02-21T18:05:58;9.80;98.60
19561;DHT22;9927;47.792;10.616;2024-02-21T18:08:26;9.80;98.60
19561;DHT22;9927;47.792;10.616;2024-02-21T18:10:54;9.80;98.90
19561;DHT22;9927;47.792;10.616;2024-02-21T18:13:21;9.80;98.90
19561;DHT22;9927;47.792;10.616;2024-02-21T18:15:49;9.70;98.70
19561;DHT22;9927;47.792;10.616;2024-02-21T18:18:16;9.70;98.70
19561;DHT22;9927;47.792;10.616;2024-02-21T18:20:44;9.70;98.50
19561;DHT22;9927;47.792;10.616;2024-02-21T18:23:11;9.60;98.30
19561;DHT22;9927;47.792;10.616;2024-02-21T18:25:39;9.60;98.20
19561;DHT22;9927;47.792;10.616;2024-02-21T18:28:07;9.60;98.50
19561;DHT22;9927;47.792;10.616;2024-02-21T18:30:34;9.50;98.30
19561;DHT22;9927;47.792;10.616;2024-02-21T18:33:01;9.50;98.60
19561;DHT22;9927;47.792;10.616;2024-02-21T18:35:29;9.50;98.70
19561;DHT22;9927;47.792;10.616;2024-02-21T18:37:59;9.50;98.40
19561;DHT22;9927;47.792;10.616;2024-02-21T18:40:26;9.40;98.60
19561;DHT22;9927;47.792;10.616;2024-02-21T18:42:55;9.40;98.80
19561;DHT22;9927;47.792;10.616;2024-02-21T18:45:27;9.30;98.80
19561;DHT22;9927;47.792;10.616;2024-02-21T18:47:54;9.40;98.60
19561;DHT22;9927;47.792;10.616;2024-02-21T18:50:21;9.30;98.60
19561;DHT22;9927;47.792;10.616;2024-02-21T18:52:50;9.30;98.80
19561;DHT22;9927;47.792;10.616;2024-02-21T18:55:19;9.30;98.70
19561;DHT22;9927;47.792;10.616;2024-02-21T18:57:47;9.10;98.60
19561;DHT22;9927;47.792;10.616;2024-02-21T19:00:15;9.10;98.60
19561;DHT22;9927;47.792;10.616;2024-02-21T19:02:46;9.10;98.70
19561;DHT22;9927;47.792;10.616;2024-02-21T19:05:14;9.00;98.00
19561;DHT22;9927;47.792;10.616;2024-02-21T19:07:42;9.00;98.40
19561;DHT22;9927;47.792;10.616;2024-02-21T19:10:10;9.00;98.50
19561;DHT22;9927;47.792;10.616;2024-02-21T19:12:40;8.90;98.90
19561;DHT22;9927;47.792;10.616;2024-02-21T19:15:07;8.90;98.20
19561;DHT22;9927;47.792;10.616;2024-02-21T19:17:35;8.90;98.50
19561;DHT22;9927;47.792;10.616;2024-02-21T19:20:02;9.00;97.90
19561;DHT22;9927;47.792;10.616;2024-02-21T19:22:29;9.00;97.70
19561;DHT22;9927;47.792;10.616;2024-02-21T19:25:04;9.00;97.80
19561;DHT22;9927;47.792;10.616;2024-02-21T19:27:35;9.00;97.60
19561;DHT22;9927;47.792;10.616;2024-02-21T19:30:02;9.10;97.70
19561;DHT22;9927;47.792;10.616;2024-02-21T19:32:30;9.10;97.70
19561;DHT22;9927;47.792;10.616;2024-02-21T19:34:57;9.10;97.70
19561;DHT22;9927;47.792;10.616;2024-02-21T19:37:24;9.10;97.70
19561;DHT22;9927;47.792;10.616;2024-02-21T19:39:52;9.10;97.80
19561;DHT22;9927;47.792;10.616;2024-02-21T19:42:19;9.10;98.10
19561;DHT22;9927;47.792;10.616;2024-02-21T19:44:46;9.20;98.00
19561;DHT22;9927;47.792;10.616;2024-02-21T19:47:14;9.20;97.80
19561;DHT22;9927;47.792;10.616;2024-02-21T19:49:42;9.20;98.60
19561;DHT22;9927;47.792;10.616;2024-02-21T19:52:09;9.20;98.00